sensor_id;sensor_type;location;lat;lon;timestamp;temperature;humidity
46335;DHT22;32051;48.882;9.210;2023-12-14T06:29:14;7.80;99.90
46335;DHT22;32051;48.882;9.210;2023-12-14T06:31:39;7.30;99.90
46335;DHT22;32051;48.882;9.210;2023-12-14T06:34:05;7.20;99.90
46335;DHT22;32051;48.882;9.210;2023-12-14T06:36:31;7.20;99.90
46335;DHT22;32051;48.882;9.210;2023-12-14T06:38:58;7.20;99.90
46335;DHT22;32051;48.882;9.210;2023-12-14T06:41:25;7.20;99.90
46335;DHT22;32051;48.882;9.210;2023-12-14T06:43:52;7.20;99.90
46335;DHT22;32051;48.882;9.210;2023-12-14T06:46:18;7.10;99.90
46335;DHT22;32051;48.882;9.210;2023-12-14T06:48:45;7.10;99.90
46335;DHT22;32051;48.882;9.210;2023-12-14T06:51:11;7.20;99.90
46335;DHT22;32051;48.882;9.210;2023-12-14T06:53:40;7.20;99.90
46335;DHT22;32051;48.882;9.210;2023-12-14T06:56:07;7.20;99.90
46335;DHT22;32051;48.882;9.210;2023-12-14T06:58:37;7.20;99.90
46335;DHT22;32051;48.882;9.210;2023-12-14T07:01:02;7.20;99.90
46335;DHT22;32051;48.882;9.210;2023-12-14T07:03:28;7.20;99.90
46335;DHT22;32051;48.882;9.210;2023-12-14T07:05:54;7.10;99.90
46335;DHT22;32051;48.882;9.210;2023-12-14T07:08:19;7.10;99.90
46335;DHT22;32051;48.882;9.210;2023-12-14T07:10:45;7.10;99.90
46335;DHT22;32051;48.882;9.210;2023-12-14T07:13:11;7.10;99.90
46335;DHT22;32051;48.882;9.210;2023-12-14T07:15:36;7.10;99.90
46335;DHT22;32051;48.882;9.210;2023-12-14T07:18:02;7.10;99.90
46335;DHT22;32051;48.882;9.210;2023-12-14T07:20:28;7.20;99.90
46335;DHT22;32051;48.882;9.210;2023-12-14T07:22:53;7.20;99.90
46335;DHT22;32051;48.882;9.210;2023-12-14T07:25:19;7.20;99.90
46335;DHT22;32051;48.882;9.210;2023-12-14T07:27:45;7.30;99.90
46335;DHT22;32051;48.882;9.210;2023-12-14T07:30:12;7.30;99.90
46335;DHT22;32051;48.882;9.210;2023-12-14T07:32:38;7.30;99.90
46335;DHT22;32051;48.882;9.210;2023-12-14T07:35:04;7.40;99.90
46335;DHT22;32051;48.882;9.210;2023-12-14T07:37:30;7.40;99.90
46335;DHT22;32051;48.882;9.210;2023-12-14T07:39:56;7.40;99.90
46335;DHT22;32051;48.882;9.210;2023-12-14T07:42:23;7.40;99.90
46335;DHT22;32051;48.882;9.210;2023-12-14T07:44:49;7.40;99.90
46335;DHT22;32051;48.882;9.210;2023-12-14T07:47:15;7.40;99.90
46335;DHT22;32051;48.882;9.210;2023-12-14T07:49:40;7.50;99.90
46335;DHT22;32051;48.882;9.210;2023-12-14T07:52:06;7.50;99.90
46335;DHT22;32051;48.882;9.210;2023-12-14T07:54:32;7.50;99.90
46335;DHT22;32051;48.882;9.210;2023-12-14T07:56:58;7.50;99.90
46335;DHT22;32051;48.882;9.210;2023-12-14T07:59:23;7.50;99.90
46335;DHT22;32051;48.882;9.210;2023-12-14T08:01:49;7.50;99.90
46335;DHT22;32051;48.882;9.210;2023-12-14T08:04:15;7.50;99.90
46335;DHT22;32051;48.882;9.210;2023-12-14T08:06:40;7.50;99.90
46335;DHT22;32051;48.882;9.210;2023-12-14T08:09:06;7.60;99.90
46335;DHT22;32051;48.882;9.210;2023-12-14T08:11:33;7.60;99.90
46335;DHT22;32051;48.882;9.210;2023-12-14T08:13:58;7.70;99.90
46335;DHT22;32051;48.882;9.210;2023-12-14T08:16:24;7.70;99.90
46335;DHT22;32051;48.882;9.210;2023-12-14T08:18:50;7.80;99.90
46335;DHT22;32051;48.882;9.210;2023-12-14T08:21:17;7.90;99.90
46335;DHT22;32051;48.882;9.210;2023-12-14T08:23:43;7.90;99.90
46335;DHT22;32051;48.882;9.210;2023-12-14T08:26:09;7.90;99.90
46335;DHT22;32051;48.882;9.210;2023-12-14T08:28:36;8.10;99.90
46335;DHT22;32051;48.882;9.210;2023-12-14T08:31:02;7.90;99.90
46335;DHT22;32051;48.882;9.210;2023-12-14T08:33:30;8.40;99.90
46335;DHT22;32051;48.882;9.210;2023-12-14T08:35:56;8.00;99.90
46335;DHT22;32051;48.882;9.210;2023-12-14T08:38:22;8.00;99.90
46335;DHT22;32051;48.882;9.210;2023-12-14T08:40:48;8.00;99.90
46335;DHT22;32051;48.882;9.210;2023-12-14T12:57:06;9.10;99.90
46335;DHT22;32051;48.882;9.210;2023-12-14T12:59:31;9.00;99.90
46335;DHT22;32051;48.882;9.210;2023-12-14T13:01:57;9.00;99.90
46335;DHT22;32051;48.882;9.210;2023-12-14T13:04:23;8.90;99.90
46335;DHT22;32051;48.882;9.210;2023-12-14T13:06:49;8.80;99.90
46335;DHT22;32051;48.882;9.210;2023-12-14T13:09:18;8.80;99.90
46335;DHT22;32051;48.882;9.210;2023-12-14T13:11:46;8.70;99.90
46335;DHT22;32051;48.882;9.210;2023-12-14T13:16:40;8.40;99.90
46335;DHT22;32051;48.882;9.210;2023-12-14T13:19:06;8.30;99.90
46335;DHT22;32051;48.882;9.210;2023-12-14T13:21:35;8.10;99.90
46335;DHT22;32051;48.882;9.210;2023-12-14T13:24:01;8.00;99.90
46335;DHT22;32051;48.882;9.210;2023-12-14T13:26:27;7.90;99.90
46335;DHT22;32051;48.882;9.210;2023-12-14T13:28:53;7.90;99.90
46335;DHT22;32051;48.882;9.210;2023-12-14T13:31:19;7.80;99.90
46335;DHT22;32051;48.882;9.210;2023-12-14T13:33:48;7.80;99.90
46335;DHT22;32051;48.882;9.210;2023-12-14T13:36:14;7.80;99.90
46335;DHT22;32051;48.882;9.210;2023-12-14T13:38:41;7.80;99.90
46335;DHT22;32051;48.882;9.210;2023-12-14T13:41:08;7.80;99.90
46335;DHT22;32051;48.882;9.210;2023-12-14T13:43:33;7.70;99.90
46335;DHT22;32051;48.882;9.210;2023-12-14T13:45:59;7.70;99.90
46335;DHT22;32051;48.882;9.210;2023-12-14T13:48:26;7.70;99.90
46335;DHT22;32051;48.882;9.210;2023-12-14T13:50:52;7.70;99.90
46335;DHT22;32051;48.882;9.210;2023-12-14T13:53:18;7.70;99.90
46335;DHT22;32051;48.882;9.210;2023-12-14T13:55:44;7.60;99.90
46335;DHT22;32051;48.882;9.210;2023-12-14T13:58:10;7.60;99.90
46335;DHT22;32051;48.882;9.210;2023-12-14T14:00:37;7.60;99.90
46335;DHT22;32051;48.882;9.210;2023-12-14T14:03:03;7.60;99.90
46335;DHT22;32051;48.882;9.210;2023-12-14T14:05:29;7.60;99.90
46335;DHT22;32051;48.882;9.210;2023-12-14T14:07:57;7.60;99.90
46335;DHT22;32051;48.882;9.210;2023-12-14T14:10:23;7.60;99.90
46335;DHT22;32051;48.882;9.210;2023-12-14T14:12:49;7.60;99.90
46335;DHT22;32051;48.882;9.210;2023-12-14T14:15:17;7.70;99.90
46335;DHT22;32051;48.882;9.210;2023-12-14T14:17:43;7.70;99.90
46335;DHT22;32051;48.882;9.210;2023-12-14T14:20:09;7.70;99.90
46335;DHT22;32051;48.882;9.210;2023-12-14T14:22:36;7.70;99.90
46335;DHT22;32051;48.882;9.210;2023-12-14T14:25:04;7.60;99.90
46335;DHT22;32051;48.882;9.210;2023-12-14T14:27:32;7.60;99.90
46335;DHT22;32051;48.882;9.210;2023-12-14T14:29:58;7.60;99.90
46335;DHT22;32051;48.882;9.210;2023-12-14T14:32:24;7.60;99.90
46335;DHT22;32051;48.882;9.210;2023-12-14T14:34:49;7.60;99.90
46335;DHT22;32051;48.882;9.210;2023-12-14T14:37:16;7.60;99.90
46335;DHT22;32051;48.882;9.210;2023-12-14T14:39:42;7.60;99.90
46335;DHT22;32051;48.882;9.210;2023-12-14T14:42:09;7.60;99.90
46335;DHT22;32051;48.882;9.210;2023-12-14T14:44:35;7.60;99.90
46335;DHT22;32051;48.882;9.210;2023-12-14T14:47:01;7.60;99.90
46335;DHT22;32051;48.882;9.210;2023-12-14T14:49:27;7.60;99.90
46335;DHT22;32051;48.882;9.210;2023-12-14T14:51:53;7.60;99.90
46335;DHT22;32051;48.882;9.210;2023-12-14T14:54:19;7.60;99.90
46335;DHT22;32051;48.882;9.210;2023-12-14T14:56:45;7.50;99.90
46335;DHT22;32051;48.882;9.210;2023-12-14T14:59:10;7.60;99.90
46335;DHT22;32051;48.882;9.210;2023-12-14T15:01:37;7.50;99.90
46335;DHT22;32051;48.882;9.210;2023-12-14T15:04:03;7.70;99.90
46335;DHT22;32051;48.882;9.210;2023-12-14T15:06:29;7.50;99.90
46335;DHT22;32051;48.882;9.210;2023-12-14T15:08:54;7.60;99.90
46335;DHT22;32051;48.882;9.210;2023-12-14T15:11:20;7.60;99.90
46335;DHT22;32051;48.882;9.210;2023-12-14T15:13:46;7.60;99.90
46335;DHT22;32051;48.882;9.210;2023-12-14T15:16:12;7.60;99.90
46335;DHT22;32051;48.882;9.210;2023-12-14T15:18:38;7.60;99.90
46335;DHT22;32051;48.882;9.210;2023-12-14T15:21:12;7.60;99.90
46335;DHT22;32051;48.882;9.210;2023-12-14T15:23:38;7.60;99.90
46335;DHT22;32051;48.882;9.210;2023-12-14T15:26:05;7.60;99.90
46335;DHT22;32051;48.882;9.210;2023-12-14T15:28:31;7.60;99.90
46335;DHT22;32051;48.882;9.210;2023-12-14T15:30:57;7.60;99.90
46335;DHT22;32051;48.882;9.210;2023-12-14T15:33:23;7.50;99.90
46335;DHT22;32051;48.882;9.210;2023-12-14T15:35:48;7.50;99.90
46335;DHT22;32051;48.882;9.210;2023-12-14T15:38:14;7.50;99.90
46335;DHT22;32051;48.882;9.210;2023-12-14T15:40:39;7.50;99.90
46335;DHT22;32051;48.882;9.210;2023-12-14T15:43:06;7.50;99.90
46335;DHT22;32051;48.882;9.210;2023-12-14T15:45:32;7.50;99.90
46335;DHT22;32051;48.882;9.210;2023-12-14T15:48:02;7.40;99.90
46335;DHT22;32051;48.882;9.210;2023-12-14T15:50:28;7.60;99.90
46335;DHT22;32051;48.882;9.210;2023-12-14T15:52:54;7.50;99.90
46335;DHT22;32051;48.882;9.210;2023-12-14T15:55:19;7.50;99.90
46335;DHT22;32051;48.882;9.210;2023-12-14T15:57:47;7.30;99.90
46335;DHT22;32051;48.882;9.210;2023-12-14T16:00:13;7.50;99.90
46335;DHT22;32051;48.882;9.210;2023-12-14T16:02:40;7.50;99.90
46335;DHT22;32051;48.882;9.210;2023-12-14T16:05:07;7.50;99.90
46335;DHT22;32051;48.882;9.210;2023-12-14T16:07:36;7.50;99.90
46335;DHT22;32051;48.882;9.210;2023-12-14T16:10:03;7.50;99.90
46335;DHT22;32051;48.882;9.210;2023-12-14T16:12:29;7.50;99.90
46335;DHT22;32051;48.882;9.210;2023-12-14T16:14:55;7.50;99.90
46335;DHT22;32051;48.882;9.210;2023-12-14T16:17:25;7.50;99.90
46335;DHT22;32051;48.882;9.210;2023-12-14T16:19:50;7.50;99.90
46335;DHT22;32051;48.882;9.210;2023-12-14T16:22:16;7.50;99.90
46335;DHT22;32051;48.882;9.210;2023-12-14T16:24:45;7.60;99.90
46335;DHT22;32051;48.882;9.210;2023-12-14T16:27:11;7.50;99.90
46335;DHT22;32051;48.882;9.210;2023-12-14T16:29:36;7.50;99.90
46335;DHT22;32051;48.882;9.210;2023-12-14T16:32:05;7.60;99.90
46335;DHT22;32051;48.882;9.210;2023-12-14T16:34:32;7.70;99.90
46335;DHT22;32051;48.882;9.210;2023-12-14T16:39:24;7.50;99.90
46335;DHT22;32051;48.882;9.210;2023-12-14T16:41:53;7.50;99.90
46335;DHT22;32051;48.882;9.210;2023-12-14T16:44:19;7.50;99.90
46335;DHT22;32051;48.882;9.210;2023-12-14T16:46:45;7.50;99.90
46335;DHT22;32051;48.882;9.210;2023-12-14T16:49:11;7.50;99.90
46335;DHT22;32051;48.882;9.210;2023-12-14T16:51:36;7.50;99.90
46335;DHT22;32051;48.882;9.210;2023-12-14T16:54:02;7.50;99.90
46335;DHT22;32051;48.882;9.210;2023-12-14T16:56:29;7.40;99.90
46335;DHT22;32051;48.882;9.210;2023-12-14T16:58:55;7.40;99.90
